»·PEaware :: N38G KPRC-KTUS

N38G :: KPRC-KTUS

FLIGHT INFORMATION

Flight Status: Arrived
Operator: Privately registered:
United States
More flights under this callsign
Pilot: Guilherme R. (33109)
Aircraft: PILATUS PC-12 EAGLE
(PC12)
More flights by this aircraft type
Origin: KPRC Love
United States
Destination: KTUS Tucson Intl
United States
More flights between these airports :: More routes between these airports
Route: DRK V105 TUS
File this flight plan on PilotEdge
Remarks: RMK / SIMBRIEF
Altitude:
(Current/Filed)
17,000ft
Speed:
(Current/Filed)
283kts
Departed: 29-Apr-23 12:59 PM
Arrived: 29-Apr-23 01:46 PM
Distance/Time
Traveled:
169nm/0:47
Distance/Time
To Go:
Arrived

Flight Plot

Page will automatically refresh every two minutes.

Flight plan parsing failed; only flown route is shown


Map Options




Map Legend


Flown Route
Filed Route
Departure Airport
Arrival Airport
Navaid (VOR, NDB)
Fix

Horizontal Profiles

Position Reports

Time Latitude Longitude Heading Altitude Ground
Speed
29-Apr-23 12:33 34.652183 -112.424189 126 5019ft 0kts
29-Apr-23 12:34 34.652183 -112.424189 126 5019ft 0kts
29-Apr-23 12:35 34.652183 -112.424189 126 5019ft 0kts
29-Apr-23 12:36 34.652183 -112.424189 126 5019ft 0kts
29-Apr-23 12:37 34.652183 -112.424189 126 5019ft 0kts
29-Apr-23 12:38 34.652183 -112.424189 126 5019ft 0kts
29-Apr-23 12:39 34.652183 -112.424189 126 5019ft 0kts
29-Apr-23 12:40 34.652183 -112.424189 126 5019ft 0kts
29-Apr-23 12:41 34.652183 -112.424189 126 5019ft 0kts
29-Apr-23 12:42 34.652183 -112.424189 126 5019ft 0kts
29-Apr-23 12:43 34.652183 -112.424189 126 5019ft 0kts
29-Apr-23 12:44 34.652183 -112.424189 126 5019ft 0kts
29-Apr-23 12:45 34.652183 -112.424189 126 5019ft 0kts
29-Apr-23 12:46 34.652183 -112.424189 126 5019ft 0kts
29-Apr-23 12:47 34.652183 -112.424189 126 5019ft 0kts
29-Apr-23 12:48 34.652183 -112.424189 126 5019ft 0kts
29-Apr-23 12:49 34.652183 -112.424189 126 5019ft 0kts
29-Apr-23 12:50 34.652183 -112.424189 126 5019ft 0kts
29-Apr-23 12:51 34.652183 -112.424189 126 5019ft 0kts
29-Apr-23 12:52 34.652183 -112.424189 126 5019ft 0kts
29-Apr-23 12:53 34.652183 -112.424189 126 5019ft 0kts
29-Apr-23 12:54 34.651911 -112.423681 40 5020ft 15kts
29-Apr-23 12:55 34.657969 -112.417243 44 4987ft 24kts
29-Apr-23 12:56 34.662703 -112.412053 137 4955ft 0kts
29-Apr-23 12:57 34.662495 -112.411803 136 4959ft 14kts
29-Apr-23 12:58 34.653923 -112.420105 223 5014ft 119kts
29-Apr-23 12:59 34.621706 -112.442936 210 6576ft 167kts
29-Apr-23 13:00 34.575135 -112.473485 209 8126ft 201kts
29-Apr-23 13:01 34.524661 -112.506603 210 9663ft 211kts
29-Apr-23 13:02 34.467513 -112.515726 180 11081ft 222kts
29-Apr-23 13:03 34.404497 -112.510444 173 12605ft 231kts
29-Apr-23 13:04 34.339273 -112.502290 173 13785ft 249kts
29-Apr-23 13:05 34.267814 -112.486216 150 13750ft 269kts
29-Apr-23 13:06 34.201271 -112.442895 151 13829ft 269kts
29-Apr-23 13:07 34.138416 -112.403738 150 15080ft 242kts
29-Apr-23 13:08 34.079950 -112.367423 150 16395ft 232kts
29-Apr-23 13:09 34.021271 -112.331131 150 17002ft 252kts
29-Apr-23 13:10 33.956761 -112.291291 150 17003ft 265kts
29-Apr-23 13:11 33.890432 -112.250411 150 17013ft 269kts
29-Apr-23 13:12 33.823663 -112.209302 151 17012ft 268kts
29-Apr-23 13:13 33.757620 -112.168729 151 17032ft 267kts
29-Apr-23 13:14 33.690997 -112.127887 151 17036ft 270kts
29-Apr-23 13:15 33.623464 -112.086494 151 17039ft 273kts
29-Apr-23 13:16 33.555708 -112.045041 151 17003ft 274kts
29-Apr-23 13:17 33.487904 -112.003026 151 17011ft 274kts
29-Apr-23 13:18 33.419080 -111.963630 167 16992ft 273kts
29-Apr-23 13:19 33.346507 -111.938209 161 16999ft 273kts
29-Apr-23 13:20 33.272248 -111.950225 181 17006ft 275kts
29-Apr-23 13:21 33.195633 -111.941062 175 17008ft 278kts
29-Apr-23 13:22 33.118140 -111.932935 175 16997ft 279kts
29-Apr-23 13:23 33.040971 -111.924879 174 17017ft 279kts
29-Apr-23 13:24 32.963382 -111.916783 174 17026ft 279kts
29-Apr-23 13:25 32.885824 -111.908198 174 16893ft 283kts
29-Apr-23 13:26 32.828998 -111.848828 108 15884ft 292kts
29-Apr-23 13:27 32.779869 -111.781890 160 14625ft 283kts
29-Apr-23 13:28 32.704952 -111.758759 154 13247ft 275kts
29-Apr-23 13:29 32.643287 -111.707105 145 11833ft 267kts
29-Apr-23 13:30 32.583772 -111.657476 142 10481ft 254kts
29-Apr-23 13:31 32.542807 -111.591203 123 9118ft 253kts
29-Apr-23 13:32 32.505497 -111.523236 122 8134ft 244kts
29-Apr-23 13:33 32.468408 -111.456114 123 7021ft 242kts
29-Apr-23 13:34 32.433197 -111.392503 123 6681ft 229kts
29-Apr-23 13:35 32.397676 -111.328504 123 5960ft 232kts
29-Apr-23 13:36 32.363954 -111.267115 122 5948ft 218kts
29-Apr-23 13:37 32.329952 -111.205452 123 5956ft 231kts
29-Apr-23 13:38 32.292223 -111.144853 139 5734ft 219kts
29-Apr-23 13:39 32.252838 -111.099829 135 5440ft 169kts
29-Apr-23 13:40 32.222577 -111.064357 135 4966ft 147kts
29-Apr-23 13:41 32.197200 -111.033399 132 4553ft 124kts
29-Apr-23 13:42 32.172688 -111.005474 136 4084ft 124kts
29-Apr-23 13:43 32.149015 -110.977772 135 3414ft 119kts
29-Apr-23 13:44 32.125863 -110.950795 129 2707ft 117kts
29-Apr-23 13:45 32.114811 -110.936409 28 2607ft 0kts
29-Apr-23 13:46 32.115084 -110.936183 37 2606ft 0kts
29-Apr-23 13:47 32.117604 -110.937387 114 2597ft 14kts
29-Apr-23 13:48 32.116699 -110.934222 133 2607ft 4kts
29-Apr-23 13:49 32.116691 -110.934213 134 2607ft 0kts

Navigation Log

Ident Type
Flight plan parsing failed, navigation log unavailable